createdAt,value
2017-08-30T00:00:28.060Z,70.41
2017-08-30T00:00:59.608Z,70.44
2017-08-30T00:01:31.401Z,70.55
2017-08-30T00:02:02.980Z,70.51
2017-08-30T00:02:34.682Z,70.40
2017-08-30T00:03:06.322Z,70.57
2017-08-30T00:03:37.951Z,70.61
2017-08-30T00:04:09.586Z,70.62
2017-08-30T00:04:41.264Z,70.59
2017-08-30T00:05:13.198Z,70.60
2017-08-30T00:05:44.832Z,70.65
2017-08-30T00:06:16.446Z,70.59
2017-08-30T00:06:48.123Z,70.59
2017-08-30T00:07:19.761Z,70.51
2017-08-30T00:07:51.393Z,70.62
2017-08-30T00:08:23.039Z,70.69
2017-08-30T00:08:54.692Z,70.81
2017-08-30T00:09:26.351Z,70.74
2017-08-30T00:09:57.989Z,70.88
2017-08-30T00:10:29.720Z,70.84
2017-08-30T00:11:02.464Z,70.71
2017-08-30T00:11:34.147Z,70.76
2017-08-30T00:12:05.737Z,70.78
2017-08-30T00:12:37.536Z,70.87
2017-08-30T00:13:09.378Z,70.82
2017-08-30T00:13:41.008Z,70.87
2017-08-30T00:14:12.650Z,70.80
2017-08-30T00:14:44.241Z,70.79
2017-08-30T00:15:15.912Z,70.90
2017-08-30T00:15:47.706Z,70.90
2017-08-30T00:16:19.303Z,70.95
2017-08-30T00:16:50.893Z,70.99
2017-08-30T00:17:22.453Z,70.98
2017-08-30T00:17:54.250Z,70.95
2017-08-30T00:18:25.937Z,70.99
2017-08-30T00:18:57.511Z,71.02
2017-08-30T00:19:29.102Z,71.11
2017-08-30T00:20:00.811Z,71.13
2017-08-30T00:20:32.478Z,71.00
2017-08-30T00:21:04.313Z,71.13
2017-08-30T00:21:35.950Z,71.21
2017-08-30T00:22:07.593Z,71.39
2017-08-30T00:22:39.223Z,71.36
2017-08-30T00:23:10.867Z,71.37
2017-08-30T00:23:42.510Z,71.44
2017-08-30T00:24:14.151Z,71.33
2017-08-30T00:24:45.788Z,71.61
2017-08-30T00:25:17.416Z,71.55
2017-08-30T00:25:49.084Z,71.60
2017-08-30T00:26:20.722Z,71.53
2017-08-30T00:26:52.365Z,71.56
2017-08-30T00:27:23.948Z,71.76
2017-08-30T00:27:55.632Z,71.87
2017-08-30T00:28:27.297Z,71.81
2017-08-30T00:28:58.927Z,71.80
2017-08-30T00:29:30.501Z,71.94
2017-08-30T00:30:02.206Z,72.03
2017-08-30T00:30:33.850Z,72.07
2017-08-30T00:31:05.489Z,72.09
2017-08-30T00:31:37.150Z,72.08
2017-08-30T00:32:08.741Z,72.04
2017-08-30T00:32:40.525Z,72.14
2017-08-30T00:33:12.370Z,72.19
2017-08-30T00:33:43.994Z,72.21
2017-08-30T00:34:15.756Z,72.14
2017-08-30T00:34:47.604Z,72.15
2017-08-30T00:35:19.186Z,72.22
2017-08-30T00:35:50.991Z,72.25
2017-08-30T00:36:22.565Z,72.40
2017-08-30T00:36:54.470Z,72.27
2017-08-30T00:37:26.175Z,72.28
2017-08-30T00:37:57.756Z,72.49
2017-08-30T00:38:29.333Z,72.34
2017-08-30T00:39:01.053Z,72.53
2017-08-30T00:39:32.637Z,72.38
2017-08-30T00:40:04.205Z,72.63
2017-08-30T00:40:35.766Z,72.61
2017-08-30T00:41:07.338Z,72.75
2017-08-30T00:41:38.927Z,72.70
2017-08-30T00:42:10.515Z,72.69
2017-08-30T00:42:42.231Z,72.77
2017-08-30T00:43:13.878Z,72.84
2017-08-30T00:43:45.499Z,73.01
2017-08-30T00:44:17.162Z,72.92
2017-08-30T00:44:48.784Z,72.85
2017-08-30T00:45:20.442Z,73.01
2017-08-30T00:45:52.106Z,73.16
2017-08-30T00:46:23.733Z,73.13
2017-08-30T00:46:55.365Z,72.99
2017-08-30T00:47:27.116Z,73.06
2017-08-30T00:47:58.941Z,73.23
2017-08-30T00:48:30.513Z,73.23
2017-08-30T00:49:02.091Z,73.17
2017-08-30T00:49:34.000Z,73.33
2017-08-30T00:50:05.827Z,73.42
2017-08-30T00:50:37.400Z,73.33
2017-08-30T00:51:09.116Z,73.45
2017-08-30T00:51:42.509Z,73.31
2017-08-30T00:52:14.245Z,73.42
2017-08-30T00:52:46.233Z,73.24
2017-08-30T00:53:17.877Z,73.51
2017-08-30T00:53:49.611Z,73.59
2017-08-30T00:54:21.405Z,73.63
2017-08-30T00:54:53.070Z,73.47
2017-08-30T00:55:24.717Z,74.05
2017-08-30T00:55:56.354Z,73.84
2017-08-30T00:56:27.941Z,74.40
2017-08-30T00:56:59.626Z,74.51
2017-08-30T00:57:31.263Z,74.61
2017-08-30T00:58:03.214Z,74.57
2017-08-30T00:58:34.862Z,74.79
2017-08-30T00:59:06.507Z,74.71
2017-08-30T00:59:38.141Z,74.92
2017-08-30T01:00:09.820Z,74.77
2017-08-30T01:00:41.388Z,74.81
2017-08-30T01:01:13.098Z,74.97
2017-08-30T01:01:44.726Z,74.99
2017-08-30T01:02:16.338Z,74.70
2017-08-30T01:02:48.017Z,75.03
2017-08-30T01:03:19.942Z,74.81
2017-08-30T01:03:51.589Z,74.99
2017-08-30T01:04:23.226Z,75.02
2017-08-30T01:04:54.879Z,75.06
2017-08-30T01:05:26.525Z,75.24
2017-08-30T01:05:58.267Z,75.12
2017-08-30T01:06:29.847Z,75.12
2017-08-30T01:07:01.548Z,75.25
2017-08-30T01:07:33.343Z,75.23
2017-08-30T01:08:04.911Z,75.06
2017-08-30T01:08:36.988Z,75.05
2017-08-30T01:09:08.643Z,74.96
2017-08-30T01:09:40.267Z,74.90
2017-08-30T01:10:12.030Z,74.80
2017-08-30T01:10:43.871Z,74.73
2017-08-30T01:11:15.492Z,74.90
2017-08-30T01:11:47.149Z,74.76
2017-08-30T01:12:18.717Z,74.69
2017-08-30T01:12:50.426Z,74.80
2017-08-30T01:13:22.058Z,74.65
2017-08-30T01:13:53.720Z,74.76
2017-08-30T01:14:25.359Z,74.66
2017-08-30T01:14:57.276Z,74.59
2017-08-30T01:15:28.864Z,74.51
2017-08-30T01:16:00.606Z,74.51
2017-08-30T01:16:32.249Z,74.51
2017-08-30T01:17:03.898Z,74.48
2017-08-30T01:17:35.472Z,74.42
2017-08-30T01:18:07.259Z,74.25
2017-08-30T01:18:38.898Z,74.49
2017-08-30T01:19:10.469Z,74.48
2017-08-30T01:19:42.070Z,74.39
2017-08-30T01:20:13.719Z,74.52
2017-08-30T01:20:45.342Z,74.47
2017-08-30T01:21:17.005Z,74.53
2017-08-30T01:21:48.637Z,74.51
2017-08-30T01:22:20.239Z,74.47
2017-08-30T01:22:51.940Z,74.40
2017-08-30T01:23:23.576Z,74.48
2017-08-30T01:23:55.210Z,74.33
2017-08-30T01:24:26.884Z,74.42
2017-08-30T01:24:58.471Z,74.26
2017-08-30T01:25:30.244Z,74.38
2017-08-30T01:26:02.083Z,74.20
2017-08-30T01:26:33.833Z,74.41
2017-08-30T01:27:05.702Z,74.49
2017-08-30T01:27:37.319Z,74.49
2017-08-30T01:28:08.961Z,74.43
2017-08-30T01:28:40.609Z,74.32
2017-08-30T01:29:12.257Z,74.41
2017-08-30T01:29:43.907Z,74.32
2017-08-30T01:30:15.549Z,74.42
2017-08-30T01:30:47.172Z,74.36
2017-08-30T01:31:18.744Z,74.16
2017-08-30T01:31:50.459Z,74.25
2017-08-30T01:32:22.096Z,74.24
2017-08-30T01:32:53.671Z,74.22
2017-08-30T01:33:25.389Z,74.16
2017-08-30T01:33:57.128Z,74.16
2017-08-30T01:34:28.977Z,74.05
2017-08-30T01:35:00.941Z,74.03
2017-08-30T01:35:32.585Z,74.18
2017-08-30T01:36:04.201Z,74.07
2017-08-30T01:36:35.883Z,74.24
2017-08-30T01:37:07.498Z,74.13
2017-08-30T01:37:39.144Z,74.11
2017-08-30T01:38:10.803Z,74.16
2017-08-30T01:38:42.387Z,74.12
2017-08-30T01:39:14.077Z,74.03
2017-08-30T01:39:45.688Z,74.23
2017-08-30T01:40:17.373Z,74.12
2017-08-30T01:40:48.990Z,74.13
2017-08-30T01:41:20.629Z,74.09
2017-08-30T01:41:52.269Z,73.97
2017-08-30T01:42:23.907Z,74.06
2017-08-30T01:42:55.555Z,73.97
2017-08-30T01:43:27.202Z,73.94
2017-08-30T01:43:58.794Z,74.07
2017-08-30T01:44:30.625Z,74.02
2017-08-30T01:45:02.432Z,74.14
2017-08-30T01:45:34.071Z,74.11
2017-08-30T01:46:05.724Z,74.07
2017-08-30T01:46:37.352Z,74.01
2017-08-30T01:47:09.008Z,74.06
2017-08-30T01:47:40.656Z,74.01
2017-08-30T01:48:12.689Z,73.92
2017-08-30T01:48:44.534Z,73.97
2017-08-30T01:49:16.197Z,73.99
2017-08-30T01:49:47.778Z,73.87
2017-08-30T01:50:19.365Z,73.89
2017-08-30T01:50:51.131Z,73.85
2017-08-30T01:51:22.745Z,73.88
2017-08-30T01:51:54.407Z,73.92
2017-08-30T01:52:26.066Z,73.82
2017-08-30T01:52:57.679Z,73.88
2017-08-30T01:53:29.325Z,73.91
2017-08-30T01:54:00.948Z,73.92
2017-08-30T01:54:32.612Z,73.90
2017-08-30T01:55:04.242Z,73.84
2017-08-30T01:55:35.887Z,73.78
2017-08-30T01:56:07.485Z,73.83
2017-08-30T01:56:39.158Z,73.88
2017-08-30T01:57:10.806Z,73.82
2017-08-30T01:57:42.478Z,73.81
2017-08-30T01:58:14.085Z,73.92
2017-08-30T01:58:45.731Z,73.93
2017-08-30T01:59:17.402Z,73.96
2017-08-30T01:59:49.000Z,74.04
2017-08-30T02:00:20.669Z,74.13
2017-08-30T02:00:52.262Z,74.13
2017-08-30T02:01:23.926Z,74.16
2017-08-30T02:01:55.669Z,74.14
2017-08-30T02:02:27.274Z,74.06
2017-08-30T02:02:59.172Z,74.09
2017-08-30T02:03:30.816Z,74.06
2017-08-30T02:04:02.446Z,73.97
2017-08-30T02:04:34.125Z,73.91
2017-08-30T02:05:05.844Z,74.11
2017-08-30T02:05:37.423Z,74.00
2017-08-30T02:06:09.024Z,74.10
2017-08-30T02:06:40.770Z,73.91
2017-08-30T02:07:12.630Z,74.14
2017-08-30T02:07:44.246Z,74.17
2017-08-30T02:08:15.905Z,74.03
2017-08-30T02:08:47.545Z,74.15
2017-08-30T02:09:19.191Z,74.18
2017-08-30T02:09:50.819Z,74.05
2017-08-30T02:10:22.495Z,73.97
2017-08-30T02:10:54.102Z,74.03
2017-08-30T02:11:25.761Z,74.10
2017-08-30T02:11:57.668Z,74.28
2017-08-30T02:12:29.352Z,74.20
2017-08-30T02:13:00.937Z,74.16
2017-08-30T02:13:32.732Z,74.31
2017-08-30T02:14:04.597Z,74.25
2017-08-30T02:14:36.180Z,74.25
2017-08-30T02:15:07.857Z,74.24
2017-08-30T02:15:39.504Z,74.25
2017-08-30T02:16:11.152Z,74.35
2017-08-30T02:16:42.752Z,74.24
2017-08-30T02:17:14.791Z,74.29
2017-08-30T02:17:46.377Z,74.29
2017-08-30T02:18:18.006Z,74.31
2017-08-30T02:18:49.573Z,74.14
2017-08-30T02:19:21.314Z,74.35
2017-08-30T02:19:52.943Z,74.37
2017-08-30T02:20:24.583Z,74.35
2017-08-30T02:20:56.228Z,74.35
2017-08-30T02:21:27.877Z,74.43
2017-08-30T02:21:59.502Z,74.54
2017-08-30T02:22:31.160Z,74.49
2017-08-30T02:23:02.793Z,74.42
2017-08-30T02:23:34.362Z,74.64
2017-08-30T02:24:06.081Z,74.64
2017-08-30T02:24:37.997Z,75.03
2017-08-30T02:25:09.663Z,75.10
2017-08-30T02:25:41.300Z,75.24
2017-08-30T02:26:12.876Z,75.21
2017-08-30T02:26:44.696Z,75.17
2017-08-30T02:27:16.529Z,75.57
2017-08-30T02:27:48.195Z,75.91
2017-08-30T02:28:19.811Z,75.74
2017-08-30T02:28:51.452Z,75.87
2017-08-30T02:29:23.049Z,76.00
2017-08-30T02:29:55.026Z,75.87
2017-08-30T02:30:26.624Z,75.72
2017-08-30T02:30:58.200Z,75.21
2017-08-30T02:31:29.788Z,74.74
2017-08-30T02:32:01.357Z,74.26
2017-08-30T02:32:33.361Z,73.98
2017-08-30T02:33:13.404Z,73.87
2017-08-30T02:33:45.757Z,73.66
2017-08-30T02:34:17.430Z,73.45
2017-08-30T02:34:49.070Z,73.20
2017-08-30T02:35:20.982Z,73.01
2017-08-30T02:35:58.788Z,72.79
2017-08-30T02:36:30.717Z,72.67
2017-08-30T02:37:02.392Z,72.56
2017-08-30T02:37:34.018Z,71.82
2017-08-30T02:38:05.972Z,66.02
2017-08-30T02:38:37.545Z,65.61
2017-08-30T02:39:10.303Z,65.34
2017-08-30T02:39:42.111Z,65.19
2017-08-30T02:40:14.077Z,64.60
2017-08-30T02:40:48.592Z,65.00
2017-08-30T02:41:23.922Z,64.28
2017-08-30T02:41:56.067Z,62.71
2017-08-30T02:42:27.626Z,63.14
2017-08-30T02:42:59.210Z,62.41
2017-08-30T02:43:31.089Z,62.31
2017-08-30T02:44:02.685Z,61.49
2017-08-30T02:44:34.380Z,62.70
2017-08-30T02:45:05.973Z,63.43
2017-08-30T02:45:37.850Z,63.31
2017-08-30T02:46:09.489Z,62.83
2017-08-30T02:46:41.159Z,62.11
2017-08-30T02:47:13.073Z,61.36
2017-08-30T02:47:44.721Z,61.28
2017-08-30T02:48:16.303Z,62.55
2017-08-30T02:48:48.005Z,61.76
2017-08-30T02:49:19.575Z,62.32
2017-08-30T02:49:51.169Z,61.86
2017-08-30T02:50:22.746Z,61.69
2017-08-30T02:50:54.393Z,61.37
2017-08-30T02:51:26.234Z,60.72
2017-08-30T02:51:57.860Z,59.97
2017-08-30T02:52:29.439Z,60.03
2017-08-30T02:53:01.169Z,61.94
2017-08-30T02:53:32.807Z,63.43
2017-08-30T02:54:04.464Z,64.23
2017-08-30T02:54:36.089Z,64.60
2017-08-30T02:55:07.675Z,65.00
2017-08-30T02:55:39.365Z,65.41
2017-08-30T02:56:11.020Z,67.10
2017-08-30T02:56:42.605Z,67.40
2017-08-30T02:57:14.279Z,67.62
2017-08-30T02:57:45.959Z,67.75
2017-08-30T02:58:17.567Z,68.02
2017-08-30T02:58:49.219Z,68.06
2017-08-30T02:59:21.159Z,68.40
2017-08-30T02:59:52.844Z,68.20
2017-08-30T03:00:24.456Z,68.28
2017-08-30T03:00:56.110Z,68.58
2017-08-30T03:01:27.738Z,68.70
2017-08-30T03:01:59.368Z,69.06
2017-08-30T03:02:31.297Z,68.96
2017-08-30T03:03:02.973Z,69.06
2017-08-30T03:03:34.548Z,69.11
2017-08-30T03:04:06.263Z,68.91
2017-08-30T03:04:37.859Z,69.07
2017-08-30T03:05:09.529Z,69.08
2017-08-30T03:05:41.166Z,69.24
2017-08-30T03:06:12.812Z,69.41
2017-08-30T03:06:44.443Z,69.33
2017-08-30T03:07:16.085Z,69.48
2017-08-30T03:07:47.652Z,69.40
2017-08-30T03:08:19.402Z,69.45
2017-08-30T03:08:51.269Z,69.40
2017-08-30T03:09:22.982Z,69.47
2017-08-30T03:09:54.609Z,69.49
2017-08-30T03:10:26.194Z,69.56
2017-08-30T03:10:57.890Z,69.67
2017-08-30T03:11:29.466Z,69.57
2017-08-30T03:12:01.223Z,69.60
2017-08-30T03:12:32.800Z,69.67
2017-08-30T03:13:04.467Z,69.71
2017-08-30T03:13:36.138Z,69.72
2017-08-30T03:14:07.744Z,69.73
2017-08-30T03:14:39.390Z,69.77
2017-08-30T03:15:11.042Z,69.74
2017-08-30T03:15:42.692Z,69.75
2017-08-30T03:16:14.261Z,69.74
2017-08-30T03:16:45.823Z,69.78
2017-08-30T03:17:17.413Z,69.81
2017-08-30T03:17:49.663Z,69.78
2017-08-30T03:18:21.520Z,69.86
2017-08-30T03:18:53.138Z,69.77
2017-08-30T03:19:24.787Z,69.83
2017-08-30T03:19:56.382Z,69.82
2017-08-30T03:20:28.374Z,69.84
2017-08-30T03:21:00.010Z,69.92
2017-08-30T03:21:31.669Z,69.86
2017-08-30T03:22:03.320Z,69.90
2017-08-30T03:22:35.244Z,70.03
2017-08-30T03:23:06.895Z,69.95
2017-08-30T03:23:38.534Z,69.98
2017-08-30T03:24:10.167Z,69.97
2017-08-30T03:24:41.815Z,69.94
2017-08-30T03:25:13.500Z,69.99
2017-08-30T03:25:45.288Z,70.03
2017-08-30T03:26:17.057Z,70.00
2017-08-30T03:26:48.714Z,70.03
2017-08-30T03:27:20.322Z,70.09
2017-08-30T03:27:51.991Z,70.00
2017-08-30T03:28:23.612Z,70.05
2017-08-30T03:28:55.268Z,70.07
2017-08-30T03:29:26.917Z,70.02
2017-08-30T03:29:58.516Z,70.04
2017-08-30T03:30:30.306Z,70.07
2017-08-30T03:31:02.090Z,70.10
2017-08-30T03:31:33.793Z,70.12
2017-08-30T03:32:05.415Z,70.14
2017-08-30T03:32:37.051Z,70.19
2017-08-30T03:33:08.725Z,70.13
2017-08-30T03:33:40.347Z,70.15
2017-08-30T03:34:11.991Z,70.07
2017-08-30T03:34:43.638Z,70.16
2017-08-30T03:35:15.281Z,70.17
2017-08-30T03:35:46.906Z,70.15
2017-08-30T03:36:18.664Z,70.22
2017-08-30T03:36:50.496Z,70.15
2017-08-30T03:37:22.145Z,70.14
2017-08-30T03:37:53.777Z,70.14
2017-08-30T03:38:25.427Z,70.13
2017-08-30T03:38:57.065Z,70.15
2017-08-30T03:39:28.734Z,70.23
2017-08-30T03:40:00.354Z,70.19
2017-08-30T03:40:31.994Z,70.24
2017-08-30T03:41:03.648Z,70.26
2017-08-30T03:41:35.245Z,70.24
2017-08-30T03:42:07.032Z,70.23
2017-08-30T03:42:38.737Z,70.24
2017-08-30T03:43:10.510Z,70.19
2017-08-30T03:43:42.101Z,70.20
2017-08-30T03:44:13.836Z,70.28
2017-08-30T03:44:45.414Z,70.22
2017-08-30T03:45:17.080Z,70.26
2017-08-30T03:45:48.737Z,70.25
2017-08-30T03:46:20.410Z,70.26
2017-08-30T03:46:52.037Z,70.37
2017-08-30T03:47:23.662Z,70.25
2017-08-30T03:47:55.307Z,70.29
2017-08-30T03:48:26.968Z,70.22
2017-08-30T03:48:58.596Z,70.28
2017-08-30T03:49:30.219Z,70.28
2017-08-30T03:50:01.899Z,70.31
2017-08-30T03:50:33.607Z,70.30
2017-08-30T03:51:05.425Z,70.27
2017-08-30T03:51:37.013Z,70.27
2017-08-30T03:52:08.759Z,70.29
2017-08-30T03:52:40.366Z,70.32
2017-08-30T03:53:11.964Z,70.30
2017-08-30T03:53:43.662Z,70.31
2017-08-30T03:54:15.293Z,70.31
2017-08-30T03:54:46.980Z,70.26
2017-08-30T03:55:18.695Z,70.26
2017-08-30T03:55:50.288Z,70.30
2017-08-30T03:56:22.180Z,70.32
2017-08-30T03:56:53.805Z,70.32
2017-08-30T03:57:25.475Z,70.31
2017-08-30T03:57:57.108Z,70.32
2017-08-30T03:58:28.689Z,70.33
2017-08-30T03:59:00.382Z,70.40
2017-08-30T03:59:32.026Z,70.39
2017-08-30T04:00:03.659Z,70.37
2017-08-30T04:00:35.591Z,70.40
2017-08-30T04:01:07.302Z,70.43
2017-08-30T04:01:39.011Z,70.38
2017-08-30T04:02:10.866Z,70.41
2017-08-30T04:02:42.668Z,70.46
2017-08-30T04:03:14.449Z,70.40
2017-08-30T04:03:46.021Z,70.42
2017-08-30T04:04:17.724Z,70.44
2017-08-30T04:04:49.389Z,70.47
2017-08-30T04:05:21.117Z,70.41
2017-08-30T04:05:52.970Z,70.42
2017-08-30T04:06:24.538Z,70.44
2017-08-30T04:06:56.264Z,70.44
2017-08-30T04:07:27.991Z,70.49
2017-08-30T04:07:59.839Z,70.45
2017-08-30T04:08:31.429Z,70.47
2017-08-30T04:09:03.225Z,70.45
2017-08-30T04:09:35.013Z,70.48
2017-08-30T04:10:06.731Z,70.49
2017-08-30T04:10:38.341Z,70.52
2017-08-30T04:11:09.960Z,70.48
2017-08-30T04:11:41.648Z,70.49
2017-08-30T04:12:13.249Z,70.50
2017-08-30T04:12:44.925Z,70.50
2017-08-30T04:13:16.564Z,70.51
2017-08-30T04:13:48.256Z,70.50
2017-08-30T04:14:19.958Z,70.49
2017-08-30T04:14:51.528Z,70.54
2017-08-30T04:15:23.235Z,70.45
2017-08-30T04:15:55.107Z,70.51
2017-08-30T04:16:26.706Z,70.39
2017-08-30T04:16:58.357Z,70.39
2017-08-30T04:17:30.006Z,70.46
2017-08-30T04:18:01.688Z,70.46
2017-08-30T04:18:33.582Z,70.46
2017-08-30T04:19:05.144Z,70.47
2017-08-30T04:19:36.898Z,70.47
2017-08-30T04:20:08.631Z,70.50
2017-08-30T04:20:40.478Z,70.49
2017-08-30T04:21:12.106Z,70.52
2017-08-30T04:21:43.765Z,70.50
2017-08-30T04:22:15.381Z,70.48
2017-08-30T04:22:47.047Z,70.48
2017-08-30T04:23:18.678Z,70.48
2017-08-30T04:23:50.329Z,70.50
2017-08-30T04:24:21.949Z,70.52
2017-08-30T04:24:53.608Z,70.52
2017-08-30T04:25:25.249Z,70.51
2017-08-30T04:25:56.912Z,70.49
2017-08-30T04:26:28.550Z,70.46
2017-08-30T04:27:00.281Z,70.43
2017-08-30T04:27:32.376Z,70.45
2017-08-30T04:28:04.074Z,70.47
2017-08-30T04:28:35.704Z,70.42
2017-08-30T04:29:07.350Z,70.47
2017-08-30T04:29:38.986Z,70.46
2017-08-30T04:30:10.627Z,70.48
2017-08-30T04:30:42.191Z,70.48
2017-08-30T04:31:13.757Z,70.49
2017-08-30T04:31:45.670Z,70.48
2017-08-30T04:32:17.554Z,70.49
2017-08-30T04:32:49.120Z,70.48
2017-08-30T04:33:20.704Z,70.45
2017-08-30T04:33:52.461Z,70.48
2017-08-30T04:34:24.705Z,70.46
2017-08-30T04:34:56.288Z,70.48
2017-08-30T04:35:28.017Z,70.50
2017-08-30T04:35:59.611Z,70.50
2017-08-30T04:36:31.209Z,70.49
2017-08-30T04:37:02.908Z,70.54
2017-08-30T04:37:34.662Z,70.49
2017-08-30T04:38:06.486Z,70.47
2017-08-30T04:38:38.140Z,70.45
2017-08-30T04:39:09.724Z,70.55
2017-08-30T04:39:41.349Z,70.52
2017-08-30T04:40:13.053Z,70.50
2017-08-30T04:40:44.713Z,70.52
2017-08-30T04:41:16.353Z,70.49
2017-08-30T04:41:47.992Z,70.51
2017-08-30T04:42:19.649Z,70.52
2017-08-30T04:42:51.284Z,70.43
2017-08-30T04:43:22.924Z,70.43
2017-08-30T04:43:54.672Z,70.46
2017-08-30T04:44:26.490Z,70.47
2017-08-30T04:44:58.086Z,70.49
2017-08-30T04:45:29.796Z,70.48
2017-08-30T04:46:01.447Z,70.48
2017-08-30T04:46:33.076Z,70.49
2017-08-30T04:47:04.702Z,70.50
2017-08-30T04:47:36.291Z,70.49
2017-08-30T04:48:08.026Z,70.50
2017-08-30T04:48:39.640Z,70.49
2017-08-30T04:49:11.284Z,70.45
2017-08-30T04:49:42.931Z,70.43
2017-08-30T04:50:14.674Z,70.49
2017-08-30T04:50:46.266Z,70.48
2017-08-30T04:51:18.083Z,70.46
2017-08-30T04:51:49.808Z,70.49
2017-08-30T04:52:21.437Z,70.46
2017-08-30T04:52:53.083Z,70.47
2017-08-30T04:53:24.716Z,70.49
2017-08-30T04:53:56.357Z,70.47
2017-08-30T04:54:27.997Z,70.48
2017-08-30T04:54:59.639Z,70.50
2017-08-30T04:55:31.247Z,70.45
2017-08-30T04:56:02.948Z,70.49
2017-08-30T04:56:34.510Z,70.48
2017-08-30T04:57:06.242Z,70.49
2017-08-30T04:57:37.858Z,70.50
2017-08-30T04:58:09.447Z,70.51
2017-08-30T04:58:41.274Z,70.51
2017-08-30T04:59:13.024Z,70.44
2017-08-30T04:59:44.723Z,70.53
2017-08-30T05:00:16.391Z,70.49
2017-08-30T05:00:47.996Z,70.56
2017-08-30T05:01:19.583Z,70.48
2017-08-30T05:01:51.348Z,70.45
2017-08-30T05:02:23.281Z,70.48
2017-08-30T05:02:54.917Z,70.49
2017-08-30T05:03:26.538Z,70.45
2017-08-30T05:03:58.163Z,70.44
2017-08-30T05:04:29.750Z,70.44
2017-08-30T05:05:01.330Z,70.45
2017-08-30T05:05:33.110Z,70.45
2017-08-30T05:06:04.728Z,70.45
2017-08-30T05:06:36.390Z,70.49
2017-08-30T05:07:08.086Z,70.45
2017-08-30T05:07:39.681Z,70.44
2017-08-30T05:08:11.321Z,70.42
2017-08-30T05:08:42.904Z,70.43
2017-08-30T05:09:14.606Z,70.43
2017-08-30T05:09:46.236Z,70.42
2017-08-30T05:10:17.886Z,70.39
2017-08-30T05:10:49.867Z,70.45
2017-08-30T05:11:21.743Z,70.37
2017-08-30T05:11:53.437Z,70.38
2017-08-30T05:12:25.019Z,70.42
2017-08-30T05:12:56.690Z,70.44
2017-08-30T05:13:28.328Z,70.42
2017-08-30T05:13:59.978Z,70.44
2017-08-30T05:14:31.578Z,70.40
2017-08-30T05:15:03.279Z,70.39
2017-08-30T05:15:34.944Z,70.45
2017-08-30T05:16:06.861Z,70.37
2017-08-30T05:16:38.515Z,70.42
2017-08-30T05:17:10.095Z,70.39
2017-08-30T05:17:41.773Z,70.39
2017-08-30T05:18:13.460Z,70.38
2017-08-30T05:18:45.098Z,70.35
2017-08-30T05:19:16.676Z,70.37
2017-08-30T05:19:48.292Z,70.35
2017-08-30T05:20:19.994Z,70.37
2017-08-30T05:20:51.636Z,70.39
2017-08-30T05:21:23.307Z,70.34
2017-08-30T05:21:55.032Z,70.34
2017-08-30T05:22:26.860Z,70.34
2017-08-30T05:22:58.429Z,70.37
2017-08-30T05:23:30.028Z,70.38
2017-08-30T05:24:01.790Z,70.35
2017-08-30T05:24:33.457Z,70.39
2017-08-30T05:25:05.156Z,70.36
2017-08-30T05:25:36.868Z,70.33
2017-08-30T05:26:08.655Z,70.34
2017-08-30T05:26:40.313Z,70.31
2017-08-30T05:27:11.936Z,70.32
2017-08-30T05:27:43.612Z,70.32
2017-08-30T05:28:15.238Z,70.31
2017-08-30T05:28:46.864Z,70.32
2017-08-30T05:29:18.515Z,70.34
2017-08-30T05:29:50.192Z,70.31
2017-08-30T05:30:21.806Z,70.28
2017-08-30T05:30:53.374Z,70.28
2017-08-30T05:31:25.099Z,70.30
2017-08-30T05:31:56.737Z,70.29
2017-08-30T05:32:28.386Z,70.31
2017-08-30T05:33:00.016Z,70.31
2017-08-30T05:33:31.671Z,70.28
2017-08-30T05:34:03.259Z,70.28
2017-08-30T05:34:34.931Z,70.27
2017-08-30T05:35:06.593Z,70.25
2017-08-30T05:35:38.213Z,70.32
2017-08-30T05:36:09.893Z,70.28
2017-08-30T05:36:41.457Z,70.26
2017-08-30T05:37:13.462Z,70.21
2017-08-30T05:37:45.101Z,70.25
2017-08-30T05:38:16.852Z,70.23
2017-08-30T05:38:48.556Z,70.28
2017-08-30T05:39:20.322Z,70.24
2017-08-30T05:39:51.997Z,70.25
2017-08-30T05:40:23.634Z,70.25
2017-08-30T05:40:55.238Z,70.29
2017-08-30T05:41:26.908Z,70.26
2017-08-30T05:41:58.543Z,70.26
2017-08-30T05:42:30.180Z,70.23
2017-08-30T05:43:01.760Z,70.20
2017-08-30T05:43:33.472Z,70.24
2017-08-30T05:44:05.115Z,70.20
2017-08-30T05:44:36.766Z,70.20
2017-08-30T05:45:08.411Z,70.25
2017-08-30T05:45:39.988Z,70.24
2017-08-30T05:46:11.662Z,70.21
2017-08-30T05:46:43.336Z,70.20
2017-08-30T05:47:15.070Z,70.22
2017-08-30T05:47:46.919Z,70.20
2017-08-30T05:48:18.556Z,70.20
2017-08-30T05:48:50.202Z,70.20
2017-08-30T05:49:21.825Z,70.20
2017-08-30T05:49:53.480Z,70.20
2017-08-30T05:50:25.132Z,70.21
2017-08-30T05:50:56.753Z,70.22
2017-08-30T05:51:28.406Z,70.19
2017-08-30T05:52:00.040Z,70.21
2017-08-30T05:52:31.684Z,70.16
2017-08-30T05:53:03.352Z,70.17
2017-08-30T05:53:34.965Z,70.19
2017-08-30T05:54:06.624Z,70.19
2017-08-30T05:54:38.208Z,70.17
2017-08-30T05:55:09.899Z,70.20
2017-08-30T05:55:41.490Z,70.15
2017-08-30T05:56:13.196Z,70.15
2017-08-30T05:56:44.752Z,70.19
2017-08-30T05:57:16.460Z,70.19
2017-08-30T05:57:48.095Z,70.15
2017-08-30T05:58:19.740Z,70.17
2017-08-30T05:58:51.600Z,70.16
2017-08-30T05:59:23.325Z,70.17
2017-08-30T05:59:54.989Z,70.17
2017-08-30T06:00:26.629Z,70.15
2017-08-30T06:00:58.191Z,70.15
2017-08-30T06:01:29.914Z,70.16
2017-08-30T06:02:01.534Z,70.14
2017-08-30T06:02:33.183Z,70.14
2017-08-30T06:03:04.844Z,70.13
2017-08-30T06:03:36.725Z,70.12
2017-08-30T06:04:08.452Z,70.08
2017-08-30T06:04:40.174Z,70.11
2017-08-30T06:05:11.973Z,70.08
2017-08-30T06:05:43.644Z,70.12
2017-08-30T06:06:15.298Z,70.08
2017-08-30T06:06:46.940Z,70.07
2017-08-30T06:07:18.600Z,70.08
2017-08-30T06:07:50.229Z,70.08
2017-08-30T06:08:21.795Z,70.09
2017-08-30T06:08:53.741Z,70.06
2017-08-30T06:09:25.323Z,70.05
2017-08-30T06:09:57.136Z,70.03
2017-08-30T06:10:28.732Z,70.05
2017-08-30T06:11:00.315Z,70.05
2017-08-30T06:11:32.318Z,70.00
2017-08-30T06:12:03.986Z,70.03
2017-08-30T06:12:35.617Z,70.03
2017-08-30T06:13:07.277Z,70.03
2017-08-30T06:13:38.934Z,70.02
2017-08-30T06:14:10.849Z,70.05
2017-08-30T06:14:42.434Z,70.04
2017-08-30T06:15:14.129Z,70.03
2017-08-30T06:15:45.769Z,70.01
2017-08-30T06:16:17.334Z,70.03
2017-08-30T06:16:49.059Z,70.05
2017-08-30T06:17:20.613Z,70.01
2017-08-30T06:17:52.331Z,70.00
2017-08-30T06:18:23.973Z,70.06
2017-08-30T06:18:55.620Z,70.00
2017-08-30T06:19:27.265Z,70.02
2017-08-30T06:19:58.902Z,70.01
2017-08-30T06:20:30.554Z,70.02
2017-08-30T06:21:02.182Z,70.00
2017-08-30T06:21:33.798Z,69.99
2017-08-30T06:22:05.484Z,70.00
2017-08-30T06:22:37.113Z,70.00
2017-08-30T06:23:08.772Z,70.00
2017-08-30T06:23:40.394Z,69.99
2017-08-30T06:24:12.049Z,69.99
2017-08-30T06:24:43.981Z,69.95
2017-08-30T06:25:15.552Z,69.95
2017-08-30T06:25:47.263Z,69.95
2017-08-30T06:26:18.939Z,69.95
2017-08-30T06:26:50.608Z,69.93
2017-08-30T06:27:22.207Z,69.94
2017-08-30T06:27:53.882Z,69.93
2017-08-30T06:28:25.491Z,69.96
2017-08-30T06:28:57.126Z,69.92
2017-08-30T06:29:28.764Z,69.89
2017-08-30T06:30:00.733Z,69.93
2017-08-30T06:30:32.325Z,69.92
2017-08-30T06:31:03.995Z,69.92
2017-08-30T06:31:35.651Z,69.90
2017-08-30T06:32:07.222Z,69.92
2017-08-30T06:32:38.924Z,69.94
2017-08-30T06:33:10.603Z,69.86
2017-08-30T06:33:42.260Z,69.87
2017-08-30T06:34:13.963Z,69.89
2017-08-30T06:34:45.825Z,69.89
2017-08-30T06:35:17.869Z,69.86
2017-08-30T06:35:49.441Z,69.90
2017-08-30T06:36:21.158Z,69.89
2017-08-30T06:36:52.984Z,69.86
2017-08-30T06:37:24.560Z,69.89
2017-08-30T06:37:56.272Z,69.89
2017-08-30T06:38:27.906Z,69.84
2017-08-30T06:38:59.540Z,69.88
2017-08-30T06:39:31.197Z,69.89
2017-08-30T06:40:03.117Z,69.87
2017-08-30T06:40:34.798Z,69.83
2017-08-30T06:41:06.539Z,69.81
2017-08-30T06:41:38.486Z,69.88
2017-08-30T06:42:10.179Z,69.82
2017-08-30T06:42:41.974Z,69.86
2017-08-30T06:43:13.625Z,69.86
2017-08-30T06:43:45.268Z,69.82
2017-08-30T06:44:16.906Z,69.82
2017-08-30T06:44:48.563Z,69.80
2017-08-30T06:45:20.214Z,69.88
2017-08-30T06:45:51.861Z,69.87
2017-08-30T06:46:23.478Z,69.83
2017-08-30T06:46:55.119Z,69.83
2017-08-30T06:47:26.694Z,69.83
2017-08-30T06:47:58.401Z,69.88
2017-08-30T06:48:30.138Z,69.91